createdAt,value
2019-03-05T00:02:21.367Z,5.00
2019-03-05T00:07:07.067Z,5.00
2019-03-05T00:11:53.140Z,5.00
2019-03-05T00:16:38.859Z,5.00
2019-03-05T00:21:25.335Z,4.60
2019-03-05T00:26:11.062Z,4.50
2019-03-05T00:31:19.529Z,6.20
2019-03-05T00:36:36.057Z,7.00
2019-03-05T00:41:51.748Z,7.30
2019-03-05T00:47:07.074Z,7.70
2019-03-05T00:52:22.503Z,7.40
2019-03-05T00:57:38.223Z,7.60
2019-03-05T01:02:41.644Z,7.80
2019-03-05T01:07:30.681Z,7.70
2019-03-05T01:12:16.660Z,7.90
2019-03-05T01:17:02.362Z,7.90
2019-03-05T01:21:48.059Z,7.90
2019-03-05T01:26:33.880Z,7.50
2019-03-05T01:31:47.816Z,7.20
2019-03-05T01:36:36.059Z,7.10
2019-03-05T01:41:22.063Z,6.80
2019-03-05T01:46:07.862Z,6.50
2019-03-05T01:50:53.622Z,6.80
2019-03-05T01:55:39.361Z,6.70
2019-03-05T02:00:25.471Z,6.80
2019-03-05T02:05:11.454Z,6.90
2019-03-05T02:09:57.747Z,6.50
2019-03-05T02:14:43.596Z,6.10
2019-03-05T02:19:49.019Z,5.70
2019-03-05T02:25:00.056Z,5.50
2019-03-05T02:30:20.747Z,5.40
2019-03-05T02:35:15.577Z,5.10
2019-03-05T02:40:17.139Z,4.70
2019-03-05T02:45:31.564Z,5.30
2019-03-05T02:50:53.602Z,5.80
2019-03-05T02:56:13.238Z,5.70
2019-03-05T03:01:25.643Z,5.50
2019-03-05T03:06:15.341Z,5.10
2019-03-05T03:11:01.165Z,5.00
2019-03-05T03:15:46.872Z,4.80
2019-03-05T03:20:32.664Z,4.80
2019-03-05T03:25:22.942Z,4.90
2019-03-05T03:30:10.751Z,4.80
2019-03-05T03:34:56.452Z,4.90
2019-03-05T03:39:42.137Z,5.10
2019-03-05T03:44:27.754Z,5.10
2019-03-05T03:49:13.526Z,5.20
2019-03-05T03:53:59.174Z,5.50
2019-03-05T03:58:44.889Z,6.00
2019-03-05T04:03:30.824Z,6.50
2019-03-05T04:08:16.660Z,7.30
2019-03-05T04:13:02.352Z,7.20
2019-03-05T04:17:48.119Z,7.10
2019-03-05T04:22:33.929Z,7.00
2019-03-05T04:27:19.704Z,7.00
2019-03-05T04:32:08.396Z,7.00
2019-03-05T04:36:54.194Z,7.10
2019-03-05T04:41:39.870Z,6.90
2019-03-05T04:46:37.958Z,6.90
2019-03-05T04:51:32.853Z,6.70
2019-03-05T04:56:18.576Z,6.30
2019-03-05T05:01:04.406Z,5.70
2019-03-05T05:05:50.203Z,5.40
2019-03-05T05:10:35.891Z,5.20
2019-03-05T05:15:26.865Z,5.20
2019-03-05T05:20:12.556Z,5.00
2019-03-05T05:24:58.282Z,4.90
2019-03-05T05:29:44.416Z,4.90
2019-03-05T05:34:30.131Z,4.80
2019-03-05T05:39:51.608Z,4.90
2019-03-05T05:44:37.592Z,4.90
2019-03-05T05:49:23.614Z,4.90
2019-03-05T05:54:09.326Z,4.90
2019-03-05T05:58:55.138Z,5.00
2019-03-05T06:03:41.086Z,5.00
2019-03-05T06:08:27.139Z,5.00
2019-03-05T06:13:16.203Z,5.00
2019-03-05T06:18:01.954Z,5.10
2019-03-05T06:22:47.729Z,5.10
2019-03-05T06:27:33.484Z,5.00
2019-03-05T06:32:19.303Z,5.00
2019-03-05T06:37:05.086Z,5.10
2019-03-05T06:41:53.377Z,5.20
2019-03-05T06:46:39.158Z,5.20
2019-03-05T06:51:24.877Z,5.30
2019-03-05T06:56:10.641Z,5.30
2019-03-05T07:00:56.510Z,5.40
2019-03-05T07:06:17.860Z,5.50
2019-03-05T07:11:33.097Z,5.70
2019-03-05T07:16:43.941Z,5.80
2019-03-05T07:21:57.952Z,6.10
2019-03-05T07:26:43.757Z,6.10
2019-03-05T07:31:29.599Z,6.30
2019-03-05T07:36:15.699Z,6.40
2019-03-05T07:41:01.426Z,6.50
2019-03-05T07:45:47.252Z,6.60
2019-03-05T07:50:33.060Z,6.70
2019-03-05T07:55:19.212Z,6.80
2019-03-05T08:00:05.762Z,6.80
2019-03-05T08:04:51.753Z,6.90
2019-03-05T08:09:40.534Z,6.90
2019-03-05T08:15:11.718Z,7.00
2019-03-05T08:19:57.433Z,7.00
2019-03-05T08:24:45.336Z,6.90
2019-03-05T08:29:31.093Z,6.90
2019-03-05T08:34:16.847Z,7.20
2019-03-05T08:39:04.170Z,7.70
2019-03-05T08:43:49.859Z,8.20
2019-03-05T08:48:35.592Z,8.10
2019-03-05T08:53:21.343Z,7.80
2019-03-05T08:58:07.112Z,8.20
2019-03-05T09:02:52.815Z,8.60
2019-03-05T09:07:38.652Z,9.30
2019-03-05T09:12:24.778Z,9.10
2019-03-05T09:17:10.708Z,10.00
2019-03-05T09:21:56.419Z,11.00
2019-03-05T09:26:50.703Z,11.70
2019-03-05T09:31:29.812Z,13.50
2019-03-05T09:36:15.692Z,14.60
2019-03-05T09:41:02.196Z,15.10
2019-03-05T09:45:47.929Z,16.40
2019-03-05T09:50:33.744Z,15.80
2019-03-05T09:55:27.004Z,16.10
2019-03-05T10:00:16.623Z,15.50
2019-03-05T10:05:02.615Z,15.00
2019-03-05T10:09:48.350Z,14.50
2019-03-05T10:14:34.469Z,13.60
2019-03-05T10:19:22.501Z,14.90
2019-03-05T10:24:10.707Z,16.80
2019-03-05T10:28:58.947Z,18.40
2019-03-05T10:33:44.875Z,18.20
2019-03-05T10:38:30.682Z,19.60
2019-03-05T10:43:16.828Z,20.80
2019-03-05T10:48:02.822Z,21.30
2019-03-05T10:52:48.855Z,21.70
2019-03-05T10:57:34.743Z,19.90
2019-03-05T11:02:21.797Z,20.30
2019-03-05T11:07:07.904Z,21.40
2019-03-05T11:11:53.995Z,17.30
2019-03-05T11:16:39.861Z,16.20
2019-03-05T11:21:25.792Z,15.90
2019-03-05T11:26:12.055Z,18.00
2019-03-05T11:30:57.939Z,19.30
2019-03-05T11:35:43.930Z,20.50
2019-03-05T11:40:30.082Z,22.50
2019-03-05T11:45:18.885Z,21.50
2019-03-05T11:50:05.188Z,20.50
2019-03-05T11:54:51.153Z,17.70
2019-03-05T11:59:36.985Z,18.70
2019-03-05T12:04:23.110Z,18.50
2019-03-05T12:09:09.309Z,17.80
2019-03-05T12:13:55.365Z,14.60
2019-03-05T12:18:41.562Z,14.90
2019-03-05T12:23:28.018Z,15.40
2019-03-05T12:28:14.123Z,17.60
2019-03-05T12:33:00.128Z,16.40
2019-03-05T12:37:46.490Z,16.40
2019-03-05T12:42:32.645Z,18.30
2019-03-05T12:47:18.424Z,20.40
2019-03-05T12:52:04.474Z,15.60
2019-03-05T12:56:50.407Z,15.00
2019-03-05T13:01:36.282Z,14.60
2019-03-05T13:06:22.149Z,14.20
2019-03-05T13:11:09.358Z,12.80
2019-03-05T13:15:57.777Z,13.10
2019-03-05T13:20:45.241Z,12.50
2019-03-05T13:25:31.007Z,12.70
2019-03-05T13:30:21.927Z,12.90
2019-03-05T13:35:08.797Z,14.10
2019-03-05T13:39:58.208Z,14.70
2019-03-05T13:44:42.765Z,14.30
2019-03-05T13:50:33.548Z,14.20
2019-03-05T13:56:14.268Z,13.10
2019-03-05T14:01:00.351Z,12.40
2019-03-05T14:06:16.041Z,12.20
2019-03-05T14:11:01.875Z,12.20
2019-03-05T14:15:47.938Z,12.40
2019-03-05T14:20:35.208Z,13.10
2019-03-05T14:25:21.722Z,14.10
2019-03-05T14:30:10.629Z,14.40
2019-03-05T14:35:02.326Z,14.70
2019-03-05T14:39:48.223Z,14.60
2019-03-05T14:44:39.832Z,15.80
2019-03-05T14:49:22.740Z,16.60
2019-03-05T14:54:11.162Z,15.80
2019-03-05T14:58:56.978Z,15.00
2019-03-05T15:03:42.892Z,14.00
2019-03-05T15:08:29.213Z,13.90
2019-03-05T15:13:17.329Z,13.90
2019-03-05T15:18:02.562Z,13.00
2019-03-05T15:22:48.694Z,12.70
2019-03-05T15:27:34.572Z,12.40
2019-03-05T15:32:20.556Z,12.50
2019-03-05T15:37:06.663Z,12.10
2019-03-05T15:41:52.677Z,12.10
2019-03-05T15:46:38.797Z,12.20
2019-03-05T15:51:24.749Z,12.20
2019-03-05T15:56:10.917Z,12.20
2019-03-05T16:00:56.906Z,12.00
2019-03-05T16:05:43.144Z,11.90
2019-03-05T16:10:29.416Z,11.70
2019-03-05T16:15:18.620Z,11.80
2019-03-05T16:20:04.375Z,11.70
2019-03-05T16:24:50.407Z,11.60
2019-03-05T16:29:36.661Z,11.50
2019-03-05T16:34:40.718Z,11.50
2019-03-05T16:39:53.564Z,11.40
2019-03-05T16:45:02.872Z,11.40
2019-03-05T16:50:10.770Z,11.30
2019-03-05T16:55:15.652Z,11.40
2019-03-05T17:00:21.435Z,11.30
2019-03-05T17:05:27.521Z,11.30
2019-03-05T17:10:36.277Z,11.20
2019-03-05T17:15:22.281Z,11.30
2019-03-05T17:20:10.086Z,11.20
2019-03-05T17:24:56.057Z,11.20
2019-03-05T17:29:42.270Z,11.10
2019-03-05T17:34:28.463Z,11.10
2019-03-05T17:39:23.141Z,10.80
2019-03-05T17:44:09.252Z,10.40
2019-03-05T17:48:55.643Z,10.20
2019-03-05T17:53:41.707Z,9.90
2019-03-05T17:58:27.646Z,9.80
2019-03-05T18:03:13.712Z,9.50
2019-03-05T18:07:59.817Z,9.40
2019-03-05T18:12:46.108Z,9.10
2019-03-05T18:17:33.566Z,9.30
2019-03-05T18:22:19.803Z,9.20
2019-03-05T18:27:05.872Z,9.20
2019-03-05T18:31:52.062Z,9.10
2019-03-05T18:36:38.075Z,9.30
2019-03-05T18:41:24.053Z,9.30
2019-03-05T18:46:10.255Z,9.20
2019-03-05T18:50:56.478Z,9.10
2019-03-05T18:55:42.282Z,9.00
2019-03-05T19:00:28.674Z,9.00
2019-03-05T19:05:16.181Z,8.80
2019-03-05T19:10:02.572Z,8.70
2019-03-05T19:14:48.838Z,8.70
2019-03-05T19:19:34.836Z,8.90
2019-03-05T19:24:20.781Z,8.90
2019-03-05T19:29:06.684Z,8.90
2019-03-05T19:33:53.109Z,8.70
2019-03-05T19:38:38.884Z,8.60
2019-03-05T19:43:24.936Z,8.70
2019-03-05T19:48:11.609Z,8.90
2019-03-05T19:52:57.867Z,8.90
2019-03-05T19:57:43.786Z,8.80
2019-03-05T20:02:30.049Z,8.60
2019-03-05T20:07:16.156Z,8.60
2019-03-05T20:12:02.459Z,8.50
2019-03-05T20:16:49.973Z,8.30
2019-03-05T20:21:36.610Z,8.10
2019-03-05T20:26:25.182Z,8.10
2019-03-05T20:31:11.627Z,8.30
2019-03-05T20:35:58.559Z,8.40
2019-03-05T20:40:47.581Z,8.20
2019-03-05T20:45:33.665Z,8.10
2019-03-05T20:50:19.735Z,8.00
2019-03-05T20:55:07.016Z,8.00
2019-03-05T20:59:54.361Z,8.00
2019-03-05T21:04:40.351Z,7.80
2019-03-05T21:09:26.515Z,7.60
2019-03-05T21:14:12.422Z,7.70
2019-03-05T21:18:58.407Z,8.10
2019-03-05T21:23:44.737Z,7.60
2019-03-05T21:28:30.620Z,7.20
2019-03-05T21:33:16.558Z,7.00
2019-03-05T21:38:02.471Z,6.70
2019-03-05T21:42:48.430Z,6.80
2019-03-05T21:47:34.596Z,7.10
2019-03-05T21:52:20.596Z,7.30
2019-03-05T21:57:06.990Z,7.00
2019-03-05T22:01:52.970Z,6.70
2019-03-05T22:06:38.816Z,6.30
2019-03-05T22:11:25.064Z,6.10
2019-03-05T22:16:10.947Z,6.00
2019-03-05T22:20:56.740Z,6.00
2019-03-05T22:25:42.794Z,5.80
2019-03-05T22:30:29.214Z,5.40
2019-03-05T22:35:16.688Z,5.10
2019-03-05T22:40:04.449Z,4.70
2019-03-05T22:44:50.203Z,4.50
2019-03-05T22:49:35.990Z,4.50
2019-03-05T22:54:21.702Z,4.60
2019-03-05T22:59:07.770Z,4.60
2019-03-05T23:04:00.762Z,4.50
2019-03-05T23:08:46.732Z,4.50
2019-03-05T23:13:32.869Z,4.30
2019-03-05T23:18:19.046Z,5.40
2019-03-05T23:23:04.921Z,7.10
2019-03-05T23:27:50.662Z,7.10
2019-03-05T23:32:36.484Z,7.20
2019-03-05T23:37:22.602Z,7.20
2019-03-05T23:42:08.477Z,7.00
2019-03-05T23:46:54.335Z,6.70
2019-03-05T23:51:40.252Z,6.90
2019-03-05T23:56:26.096Z,6.80
